EGYM METAR and TAF | Updated Today

EGYM METAR

RAF Marham

Observation time: 22 min. ago

EGYM 291950Z 33004KT 8000 FEW018 10/08 Q1008 PROB30 TEMPO 6000 SCT022 RMK BLU PROB30 WHT

Need help? Read our tutorial on how to read METARs or read the parsed version below.

RAF Marham (EGYM) METAR

  • Weather conditions on Thu, 29 Sep 2022 19:50:00 +0000 (22 min. ago):
  • Present conditions: Dry
  • Clouds: A few at 549 meters
  • Visibility: 8000 meters
  • Wind: 330 degrees at 4 knots
  • Temperature: 10 celsius
  • Dew point: 8 celsius
  • Pressure: 1008 millibars
  • Remarks: BLU PROB30 WHT


Useful to know...

EGYM TAF

RAF Marham

TAF EGYM 291635Z 2918/2922 36005KT 9999 SCT025 TEMPO 2918/2920 7000 SHRA BKN020TCU PROB30 2919/2921 SCT022
Observation time: 3:37 hr. ago
Need help? Read our tutorial on how to read TAFs or read the parsed version below.

Parsed version of TAF for RAF Marham (EGYM)

  • From 29 September at 18:00 UTC, to day 29 of the month at 22:00 UTC
  • Clouds: Scattered at 762 meters
  • Visibility: Greater than 10 km
  • Wind: 360 degrees at 5
  • Expected to arise temporarily, from 29 September at 18:00 UTC, to day 29 of the month at 20:00 UTC
  • Clouds: Broken sky at 610 meters, towering cumulus
  • Visibility: 7000 meters
  • Other: Showers of rain
  • From 29 September at 19:00 UTC, to day 29 of the month at 21:00 UTC
    Probability of 30%
  • Clouds: Scattered at 671 meters